NCAR-RAP Real-Time Weather Data

Output produced by METARs form (27 January 2020  08:49 UTC)
found at http://weather.rap.ucar.edu/surface/
 
 
 
K9L2 270758Z AUTO 17004KT 10SM CLR 10/03 A3018 RMK AO2 SLP212 T01000025 401960007 $
 
KAAT 270755Z AUTO 00000KT 10SM FEW060 OVC070 01/00 A3023 RMK AO2 SLP242 T00110000 400830006
 
KACV 270809Z AUTO 14007KT 10SM SCT021 BKN055 OVC070 11/08 A3029 RMK AO2 T01060078
 
KAJO 270835Z AUTO 00000KT 3SM BR BKN019 07/07 A3019 RMK AO2
 
KAPC 270754Z AUTO 19004KT 10SM FEW070 08/07 A3034 RMK AO2 SLP264 T00780067 401720061
 
 
KAUN 270835Z AUTO 11008KT 10SM OVC075 09/07 A3031 RMK A01
 
KAVX 270822Z AUTO 33006KT 3/4SM HZ VV002 11/08 A3017 RMK AO2 T01110083
 
KBAB 270758Z AUTO 18003KT 10SM SCT095 09/08 A3029 RMK AO2 SLP260 T00930079 401820093 $
 
KBAN 270752Z AUTO 00000KT 10SM CLR M04/M08 A3026 RMK AO2 SLP250 T10441083 400721044 FZRANO $
 
KBFL 270834Z AUTO 33005KT 2SM BR CLR 07/06 A3030 RMK AO2 T00720061
 
KBIH 270756Z AUTO 27007KT 10SM CLR 02/M11 A3022 RMK AO2 SLP217 T00221106 401781028
 
KBLH 270752Z AUTO 25005KT 10SM CLR 12/04 A3005 RMK AO2 SLP174 T01220039 402330061
 
KBLU 270815Z AUTO 00000KT 7SM BKN013 OVC020 02/01 A3031 RMK AO2 T00170011
 
 
 
KBUR 270753Z 10005KT 4SM BR CLR 11/08 A3015 RMK AO2 SLP205 T01060083 401670100
 
KBYS 270758Z AUTO M M M M M M RMK AO2 SLPNO 402000009 PWINO PNO FZRANO TSNO $
 
KCCR 270753Z AUTO 15006KT 10SM CLR 10/06 A3035 RMK AO2 SLP263 T01000056 401720094
 
KCEC 270756Z AUTO 16012KT 10SM OVC017 10/09 A3027 RMK AO2 RAB08E37 SLP252 P0001 T01000089 401170072
 
KCIC 270835Z AUTO 14006KT 10SM OVC085 13/09 A3030 RMK AO1
 
KCMA 270755Z AUTO 07006KT 6SM BR CLR 09/07 A3017 RMK AO2 SLP226 T00890067 401720089
 
KCNO 270824Z AUTO 00000KT 3SM BR BKN021 09/07 A3019 RMK AO2 T00890072
 
KCQT 270752Z AUTO 00000KT 5SM HZ CLR 13/10 A3017 RMK AO2 SLP217 T01330100 401720133
 
KCRQ 270753Z 00000KT 9SM OVC020 14/11 A3016 RMK AO2 SLP212 T01390106 401560117 $
 
KCVH 270840Z AUTO 15006KT 10SM CLR 07/06 A3037 RMK A01
 
 
KCZZ 270752Z AUTO 05004KT 06/01 A3012 RMK AO1 SLP182 T00560011 401830011 $
 
KDAG 270750Z AUTO 26012KT 10SM CLR 13/02 A3016 RMK AO2 SLP199 T01280017 402220078
 
KDVO 270835Z AUTO 01004KT 10SM CLR 10/08 A3034 RMK AO2
 
 
KEDU 270835Z AUTO 14003KT 10SM SCT080 09/07 A3031 RMK AO1
 
KEDW 270758Z AUTO 32007KT 10SM CLR 11/05 A3018 RMK AO2 SLP212 T01130047 401900025
 
KEED 270756Z AUTO 32008KT 10SM FEW110 16/04 A3006 RMK AO2 SLP164 T01610039 402280072
 
 
KEMT 270349Z 00000KT 3SM HZ OVC016 13/10 A3015
 
KF70 270835Z AUTO 00000KT 7SM OVC010 10/09 A3017 RMK AO1
 
KFAT 270753Z 34005KT 10SM CLR 10/07 A3031 RMK AO2 SLP262 T01000067 401780100
 
KFCH 270835Z AUTO 30007KT 10SM CLR 08/08 A3033 RMK A01
 
 
KFUL 270753Z AUTO 04003KT 5SM HZ BKN024 12/09 A3017 RMK AO2 SLP216 T01220089 401560106
 
KGOO 270835Z AUTO 11004KT 10SM FEW017 FEW060 OVC070 07/05 A3029 RMK A01
 
 
KHAF 270840Z AUTO 09004KT 7SM FEW003 08/07 A3036 RMK AO2
 
 
 
KHHR 270753Z AUTO 00000KT 6SM HZ CLR 13/10 A3018 RMK AO2 SLP221 T01280100 401610128 $
 
KHJO 270753Z AUTO 29004KT 10SM CLR 11/08 A3030 RMK AO2 SLP263 T01110078 401940089
 
KHWD 270754Z AUTO 08003KT CLR 08/07 A3036 RMK AO2 SLP289 T00830067 401560083 $
 
KIPL 270753Z AUTO 00000KT CLR 12/05 A3005 RMK AO2 SLP174 T01220050 402440083
 
 
KIZA 270835Z AUTO 22005KT 10SM CLR 10/07 A3021 RMK AO2
 
KL18 270835Z AUTO 00000KT 7SM OVC015 10/09 A3017 RMK AO2
 
KL35 270835Z AUTO 00000KT 10SM CLR M03/M05 A3025 RMK AO2
 
KLAX 270753Z 00000KT 7SM FEW005 FEW009 SCT014 13/10 A3017 RMK AO2 SLP216 T01330100 401670133 $
 
KLGB 270753Z AUTO 11004KT 5SM BR SCT017 11/09 A3018 RMK AO2 SLP218 T01110089 401440111
 
KLHM 270835Z AUTO 12003KT 10SM SCT095 10/08 A3029 RMK AO1
 
 
KLPC 270756Z AUTO 30007KT 10SM CLR RMK AO2 SLPNO FZRANO $
 
KLVK 270753Z AUTO 08004KT 8SM CLR 07/06 A3035 RMK AO2 SLP275 T00720061 401610067
 
KMAE 270753Z AUTO 30005KT 10SM CLR 08/06 A3032 RMK AO2 SLP269 T00780061 401780072
 
KMCC 270835Z AUTO 16006KT 10SM FEW085 09/09 A3031 RMK AO2
 
KMCE 270753Z AUTO 00000KT 10SM CLR 08/06 A3032 RMK AO2 SLP268 T00780056 401780061
 
KMER 270445Z 35009KT 10SM CLR 09/09 A3028
 
 
KMHS 270756Z AUTO 30003KT 10SM BKN070 03/01 A3023 RMK AO2 SLP262 T00280006 401060028
 
KMHV 270820Z AUTO 30027G38KT 10SM CLR 11/02 A3016 RMK A01
 
KMMH 270838Z AUTO 29012KT 10SM CLR 00/M12 A3027 RMK AO2
 
KMOD 270753Z AUTO 01004KT 10SM CLR 10/07 A3032 RMK AO2 SLP266 T01000072 401830094
 
KMRY 270754Z AUTO 22004KT 10SM CLR 11/09 A3037 RMK AO2 SLP296 T01110089 401560106
 
 
KMYF 270753Z AUTO 00000KT 10SM OVC019 13/09 A3018 RMK AO2 SLP218 T01280089 401670117
 
KMYV 270753Z AUTO 16005KT 10SM SCT100 11/09 A3031 RMK AO2 SLP267 T01060089 401780106
 
KNFG 270755Z AUTO 00000KT 9SM OVC023 12/09 A3017 RMK AO2 SLP216 T01170089 401560100 $
 
 
KNID 270756Z AUTO 21007KT 10SM CLR 08/M03 A3015 RMK AO2 SLP209 T00781028 402220028 $
 
KNJK 270756Z AUTO 34009KT 10SM CLR 12/02 A3007 RMK AO2 SLP197 T01170022 402500072 $
 
KNKX 270755Z 08003KT 7SM OVC018 13/09 A3017 RMK AO2 SLP213 T01330094 401780106 $
 
KNLC 270756Z AUTO 00000KT 10SM CLR 07/06 A3032 RMK AO2 SLP267 T00720056 401890067
 
KNRS 270756Z AUTO 9SM OVC022 A3018 RMK AO2 SLP221 $
 
KNSI 270818Z AUTO 30013KT 8SM SCT007 12/11 A3018 RMK AO2 T01220106 $
 
KNTD 270652Z 06006KT 10SM CLR 11/09 A3018 RMK SLP210 LAST T01080090
 
KNUC 270833Z AUTO 32004KT SCT005 BKN009 13/ A3018 RMK AO2 T0128 PNO $
 
 
KNXF 270825Z AUTO 08004KT 10SM BKN022 10/09 A3017 RMK AO2 T01000089 PWINO $
 
KNXP 270756Z AUTO 34014KT 10SM CLR 13/02 A3019 RMK AO2 PK WND 33028/0735 SLP202 T01330017 402000050
 
KNZY 270652Z AUTO 26003KT 10SM OVC023 14/09 A3017 RMK AO2 SLP217 T01440089 $
 
 
KO22 270835Z AUTO 00000KT 8SM CLR 04/04 A3032 RMK A01
 
KO54 270835Z AUTO 19003KT 10SM BKN017 BKN026 OVC035 07/03 A3029 RMK AO1
 
 
KO69 270835Z AUTO 34004KT 10SM OVC013 08/08 A3035 RMK A01
 
 
 
 
KOAK 270753Z 00000KT 10SM FEW010 FEW180 11/08 A3036 RMK AO2 SLP281 T01060083 401720094
 
KOKB 270752Z AUTO 00000KT 8SM OVC023 13/10 A3017 RMK AO2 SLP216 T01280100 401670117 $
 
KONT 270753Z 22003KT 3SM HZ FEW000 OVC015 12/08 A3016 RMK AO2 SLP213 HZ FEW000 T01220083 401560089
 
KOVE 270753Z AUTO 00000KT 10SM SCT085 OVC100 12/08 A3031 RMK AO2 SLP266 T01220083 401890117
 
KOXR 270751Z AUTO 04007KT 8SM CLR 09/09 A3017 RMK AO2 SLP215 T00940089 401610094 $
 
KPAO 270447Z 18004KT 10SM SKC 09/07 A3032 RMK LAST
 
KPMD 270753Z AUTO 18007KT 10SM CLR 06/01 A3022 RMK AO2 SLP225 T00560011 401940039
 
KPOC 270447Z 00000KT 4SM BR OVC012 12/09 A3016 RMK LAST
 
KPRB 270753Z AUTO 33004KT 10SM CLR 09/08 A3031 RMK AO2 SLP263 T00940078 401830083
 
KPSP 270753Z AUTO 29005KT 10SM CLR 15/06 A3009 RMK AO2 SLP189 T01500061 402390106
 
KPTV 270818Z AUTO 20004KT 2 1/2SM BR CLR 08/07 A3032 RMK AO2
 
KPVF 270815Z AUTO 09006KT 10SM OVC075 05/03 A3033 RMK AO1
 
KRAL 270806Z AUTO 00000KT 4SM BR OVC015 10/08 A3017 RMK AO2 T01000078 $
 
KRBL 270754Z AUTO 06004KT 10SM SCT022 OVC075 13/10 A3029 RMK AO2 SLP255 T01280100 401780117
 
KRDD 270753Z AUTO 16007KT 10SM OVC065 12/06 A3026 RMK AO2 SLP247 T01170061 401830106
 
 
KRHV 270550Z 00000KT 10SM SKC 10/08 A3034 RMK LAST
 
KRIV 270758Z 28003KT 4SM BR OVC008 10/09 A3016 RMK AO2A SLP211 401670032 $
 
KRNM 270753Z AUTO 00000KT 4SM BR OVC006 10/09 A3017 RMK AO2 SLP213 T01000094 401500022 $
 
KSAC 270753Z AUTO 18003KT 10SM OVC090 09/07 A3032 RMK AO2 SLP267 T00940072 401890083
 
KSAN 270751Z 00000KT 10SM OVC023 16/10 A3019 RMK AO2 SLP224 T01560100 401720139
 
KSBA 270753Z AUTO 10003KT 10SM CLR 10/07 A3017 RMK AO2 SLP216 T01000072 401720100
 
KSBD 270840Z AUTO 23004KT 3SM HZ OVC014 12/08 A3018 RMK AO2 T01170084
 
KSBP 270756Z AUTO 33008KT 10SM CLR 12/07 A3029 RMK AO2 SLP257 T01220072 401670111
 
KSCK 270755Z AUTO 35003KT 10SM CLR 10/08 A3033 RMK AO2 SLP269 T01000078 401890094
 
KSDB 270832Z AUTO 33034G40KT 10SM FEW002 BKN008 OVC014 06/04 A3023 RMK AO2 PK WND 32040/0828 CIG 004V011 T00610039 $
 
KSDM 270753Z AUTO 00000KT 9SM OVC017 12/09 A3017 RMK AO2 SLP216 T01220089 401610106
 
KSEE 270835Z AUTO 00000KT 10SM OVC017 13/10 A3016 RMK AO2
 
KSFO 270756Z 27014KT 10SM CLR 11/07 A3035 RMK AO2 SLP277 T01110072 401610111
 
KSIY 270753Z AUTO 14006KT 10SM BKN047 OVC055 06/01 A3024 RMK AO2 SLP253 T00610011 401330056
 
KSJC 270753Z 00000KT 10SM FEW020 09/05 A3036 RMK AO2 SLP281 LAST T00890050 401670089
 
KSLI 270833Z AUTO 00000KT 7SM BKN017 10/10 A3017 RMK AO2 SLP220
 
KSMF 270753Z 15005KT 10SM BKN090 11/08 A3031 RMK AO2 SLP262 T01060083 401890094 $
 
KSMO 270804Z AUTO 04003KT 3SM BR FEW012 11/10 A3018 RMK AO2 T01110100
 
KSMX 270751Z AUTO 31008KT 10SM CLR 12/08 A3026 RMK AO2 SLP251 T01170083 401720100 TSNO $
 
KSNA 270753Z AUTO 00000KT 8SM CLR 13/08 A3017 RMK AO2 SLP216 T01280083 401670122
 
KSNS 270753Z AUTO 00000KT 10SM CLR 11/08 A3035 RMK AO2 SLP288 T01060078 401560100
 
KSQL 270835Z AUTO 00000KT 10SM CLR 08/05 A3036 RMK AO2
 
KSTS 270753Z AUTO 12003KT 10SM BKN060 09/08 A3035 RMK AO2 SLP270 T00890078 401830083
 
KSUU 270758Z AUTO 16003KT 10SM BKN070 OVC080 11/07 A3032 RMK AO2 SLP274 T01120067 401980088 $
 
KSVE 270835Z AUTO 32004KT 10SM OVC050 04/01 A3026 RMK AO2
 
KTOA 270347Z 00000KT 10SM FEW015 11/11 A3014
 
KTRK 270835Z AUTO 00000KT 10SM OVC044 M01/M02 A3030 RMK AO2
 
KTRM 270752Z AUTO 33004KT 9SM CLR 15/06 A3004 RMK AO2 SLP174 T01500061 402280056
 
 
KTVL 270753Z AUTO 00000KT 10SM CLR M03/M04 A3028 RMK AO2 SLP254 T10281039 400561028
 
KUKI 270756Z AUTO 00000KT 10SM OVC035 09/06 A3034 RMK AO2 SLP270 T00890061 401560078
 
KVBG 270758Z AUTO 02012KT 10SM CLR 11/10 A3026 RMK AO2 SLP250 T01140095 401420105 $
 
KVCB 270753Z AUTO 00000KT 10SM OVC080 10/06 A3032 RMK AO2 SLP267 T01000061 402000078
 
KVCV 270345Z 24013G26KT 10SM SKC A3014
 
KVIS 270756Z AUTO 29004KT 8SM CLR 09/08 A3031 RMK AO2 SLP274 T00890083 401830083
 
KVNY 270751Z AUTO VRB03KT 10SM CLR 15/05 A3016 RMK AO2 SLP208 T01500050 401780111
 
KWHP 270400Z 27010KT 10SM SKC 15/05 A3016
 
KWJF 270756Z AUTO 30015G23KT 10SM CLR 12/03 A3021 RMK AO2 SLP225 T01170028 401890006
 
KWVI 270753Z AUTO 33003KT 10SM CLR 09/07 A3036 RMK AO2 SLP282 T00890067 401890083